createdAt,value
2022-08-03T00:01:28.569Z,1.10
2022-08-03T00:03:55.883Z,1.55
2022-08-03T00:06:23.072Z,1.30
2022-08-03T00:08:50.362Z,1.50
2022-08-03T00:11:17.789Z,1.25
2022-08-03T00:13:44.957Z,1.58
2022-08-03T00:16:13.436Z,1.38
2022-08-03T00:18:40.874Z,1.30
2022-08-03T00:21:08.223Z,1.20
2022-08-03T00:23:52.200Z,0.90
2022-08-03T00:26:22.902Z,1.30
2022-08-03T00:28:50.388Z,1.23
2022-08-03T00:31:30.948Z,1.10
2022-08-03T00:34:05.150Z,1.48
2022-08-03T00:36:33.356Z,1.15
2022-08-03T00:39:00.521Z,1.02
2022-08-03T00:41:27.780Z,1.20
2022-08-03T00:43:54.975Z,1.20
2022-08-03T00:46:22.661Z,1.05
2022-08-03T00:48:50.550Z,1.30
2022-08-03T00:51:18.799Z,1.02
2022-08-03T00:53:46.155Z,1.17
2022-08-03T00:56:17.061Z,1.45
2022-08-03T00:58:45.082Z,1.30
2022-08-03T01:01:12.758Z,1.40
2022-08-03T01:03:40.665Z,1.60
2022-08-03T01:06:13.473Z,1.65
2022-08-03T01:08:57.985Z,1.45
2022-08-03T01:11:31.320Z,1.30
2022-08-03T01:14:18.884Z,1.50
2022-08-03T01:16:58.319Z,1.60
2022-08-03T01:19:40.801Z,1.30
2022-08-03T01:22:17.100Z,1.13
2022-08-03T01:24:50.302Z,1.40
2022-08-03T01:27:26.996Z,1.20
2022-08-03T01:29:58.972Z,1.60
2022-08-03T01:32:58.076Z,1.55
2022-08-03T01:35:39.166Z,1.20
2022-08-03T01:38:15.355Z,1.83
2022-08-03T01:40:44.914Z,1.75
2022-08-03T01:43:15.300Z,1.60
2022-08-03T01:46:03.239Z,1.60
2022-08-03T01:48:30.697Z,1.15
2022-08-03T01:50:58.664Z,1.30
2022-08-03T01:53:26.623Z,1.00
2022-08-03T01:55:54.530Z,1.33
2022-08-03T01:58:23.584Z,1.40
2022-08-03T02:00:51.810Z,0.93
2022-08-03T02:03:20.480Z,1.52
2022-08-03T02:05:48.475Z,1.45
2022-08-03T02:08:16.930Z,1.55
2022-08-03T02:10:46.228Z,1.05
2022-08-03T02:13:14.290Z,1.10
2022-08-03T02:15:41.983Z,1.48
2022-08-03T02:18:10.089Z,1.20
2022-08-03T02:20:39.083Z,1.35
2022-08-03T02:23:07.267Z,1.50
2022-08-03T02:25:37.810Z,1.17
2022-08-03T02:28:08.351Z,1.35
2022-08-03T02:30:38.728Z,1.63
2022-08-03T02:33:07.608Z,1.30
2022-08-03T02:35:36.580Z,1.38
2022-08-03T02:38:05.189Z,1.10
2022-08-03T02:40:33.250Z,1.38
2022-08-03T02:43:02.612Z,0.88
2022-08-03T02:45:30.583Z,2.00
2022-08-03T02:48:00.022Z,1.52
2022-08-03T02:50:28.258Z,1.10
2022-08-03T02:52:56.223Z,0.85
2022-08-03T02:55:23.747Z,1.30
2022-08-03T02:57:51.698Z,1.20
2022-08-03T03:00:27.754Z,1.40
2022-08-03T03:02:57.562Z,1.27
2022-08-03T03:05:52.043Z,1.20
2022-08-03T03:08:18.496Z,1.40
2022-08-03T03:10:46.653Z,1.20
2022-08-03T03:13:15.106Z,1.35
2022-08-03T03:15:43.423Z,1.20
2022-08-03T03:18:11.381Z,1.25
2022-08-03T03:20:39.308Z,1.42
2022-08-03T03:23:07.080Z,1.40
2022-08-03T03:25:34.576Z,1.05
2022-08-03T03:28:02.395Z,1.20
2022-08-03T03:30:30.105Z,1.10
2022-08-03T03:32:58.183Z,1.58
2022-08-03T03:35:26.098Z,1.55
2022-08-03T03:37:53.350Z,1.30
2022-08-03T03:40:20.822Z,1.30
2022-08-03T03:42:48.107Z,1.77
2022-08-03T03:45:15.647Z,1.25
2022-08-03T03:47:42.839Z,1.25
2022-08-03T03:50:11.095Z,0.90
2022-08-03T03:52:38.311Z,2.33
2022-08-03T03:55:05.792Z,1.13
2022-08-03T03:57:34.068Z,1.30
2022-08-03T04:00:01.377Z,1.20
2022-08-03T04:02:28.626Z,1.35
2022-08-03T04:05:14.181Z,1.25
2022-08-03T04:08:11.821Z,1.30
2022-08-03T04:10:58.632Z,2.00
2022-08-03T04:13:29.607Z,1.60
2022-08-03T04:15:57.747Z,1.58
2022-08-03T04:18:26.248Z,1.20
2022-08-03T04:20:55.607Z,1.40
2022-08-03T04:23:25.769Z,1.60
2022-08-03T04:25:53.579Z,1.67
2022-08-03T04:28:30.618Z,1.02
2022-08-03T04:31:00.102Z,1.27
2022-08-03T04:33:29.676Z,1.30
2022-08-03T04:36:01.627Z,1.40
2022-08-03T04:38:35.816Z,1.20
2022-08-03T04:41:03.580Z,1.25
2022-08-03T04:43:32.817Z,0.90
2022-08-03T04:46:01.052Z,1.15
2022-08-03T04:48:28.493Z,1.20
2022-08-03T04:50:55.829Z,1.40
2022-08-03T04:53:23.248Z,1.17
2022-08-03T04:55:50.399Z,1.20
2022-08-03T04:58:17.709Z,2.60
2022-08-03T05:00:45.694Z,2.20
2022-08-03T05:03:24.058Z,1.60
2022-08-03T05:06:01.810Z,2.10
2022-08-03T05:08:29.534Z,2.75
2022-08-03T05:10:59.356Z,2.30
2022-08-03T05:13:26.789Z,2.65
2022-08-03T05:15:53.984Z,3.53
2022-08-03T05:18:21.248Z,3.50
2022-08-03T05:20:48.518Z,2.30
2022-08-03T05:23:15.771Z,1.70
2022-08-03T05:25:49.708Z,1.30
2022-08-03T05:28:17.508Z,1.42
2022-08-03T05:30:44.793Z,1.42
2022-08-03T05:33:12.000Z,1.48
2022-08-03T05:36:02.061Z,3.30
2022-08-03T05:38:34.327Z,2.00
2022-08-03T05:41:20.263Z,1.58
2022-08-03T05:43:50.559Z,1.08
2022-08-03T05:46:18.347Z,1.33
2022-08-03T05:48:45.579Z,1.50
2022-08-03T05:51:13.536Z,1.38
2022-08-03T05:53:41.741Z,1.60
2022-08-03T05:56:13.942Z,1.27
2022-08-03T05:58:43.431Z,1.17
2022-08-03T06:01:10.693Z,1.25
2022-08-03T06:03:37.825Z,1.45
2022-08-03T06:06:05.125Z,1.50
2022-08-03T06:08:32.317Z,1.98
2022-08-03T06:10:59.525Z,1.67
2022-08-03T06:13:26.656Z,1.40
2022-08-03T06:15:53.825Z,1.77
2022-08-03T06:18:21.042Z,1.40
2022-08-03T06:20:49.494Z,1.48
2022-08-03T06:23:18.035Z,1.10
2022-08-03T06:25:45.900Z,1.38
2022-08-03T06:28:42.673Z,1.45
2022-08-03T06:31:01.762Z,2.75
2022-08-03T06:33:48.439Z,2.25
2022-08-03T06:36:16.361Z,3.28
2022-08-03T06:38:43.528Z,1.25
2022-08-03T06:41:10.687Z,1.60
2022-08-03T06:44:02.640Z,1.20
2022-08-03T06:46:25.016Z,1.50
2022-08-03T06:48:53.417Z,1.60
2022-08-03T06:51:20.980Z,1.10
2022-08-03T06:54:08.201Z,1.27
2022-08-03T06:56:35.275Z,1.20
2022-08-03T06:59:02.383Z,1.20
2022-08-03T07:01:29.663Z,1.45
2022-08-03T07:03:56.911Z,1.10
2022-08-03T07:06:24.084Z,1.13
2022-08-03T07:08:53.648Z,1.00
2022-08-03T07:11:22.691Z,1.02
2022-08-03T07:13:50.162Z,1.30
2022-08-03T07:16:17.593Z,1.10
2022-08-03T07:18:45.232Z,1.20
2022-08-03T07:21:13.018Z,1.20
2022-08-03T07:23:40.372Z,1.30
2022-08-03T07:26:07.827Z,1.00
2022-08-03T07:28:35.068Z,1.85
2022-08-03T07:31:02.716Z,1.25
2022-08-03T07:33:30.245Z,1.40
2022-08-03T07:35:57.645Z,1.08
2022-08-03T07:38:25.311Z,1.40
2022-08-03T07:40:53.748Z,1.20
2022-08-03T07:43:21.205Z,1.40
2022-08-03T07:45:48.725Z,1.30
2022-08-03T07:48:16.297Z,1.30
2022-08-03T07:50:43.882Z,1.00
2022-08-03T07:53:11.415Z,1.15
2022-08-03T07:55:39.022Z,1.10
2022-08-03T07:58:09.904Z,1.00
2022-08-03T08:00:38.290Z,0.90
2022-08-03T08:03:06.021Z,1.00
2022-08-03T08:05:34.001Z,1.08
2022-08-03T08:08:01.926Z,1.23
2022-08-03T08:10:30.153Z,1.25
2022-08-03T08:12:57.607Z,1.17
2022-08-03T08:15:25.279Z,1.13
2022-08-03T08:17:54.113Z,1.00
2022-08-03T08:20:27.890Z,1.27
2022-08-03T08:22:58.261Z,1.45
2022-08-03T08:25:30.178Z,1.17
2022-08-03T08:28:30.666Z,1.40
2022-08-03T08:30:46.252Z,1.38
2022-08-03T08:33:22.940Z,1.08
2022-08-03T08:35:52.461Z,1.02
2022-08-03T08:38:19.912Z,1.20
2022-08-03T08:40:48.117Z,1.40
2022-08-03T08:43:15.539Z,1.40
2022-08-03T08:45:43.289Z,1.10
2022-08-03T08:48:11.058Z,1.35
2022-08-03T08:50:45.421Z,1.23
2022-08-03T08:53:18.364Z,1.30
2022-08-03T08:55:59.755Z,1.10
2022-08-03T08:58:29.880Z,1.23
2022-08-03T09:00:57.560Z,1.30
2022-08-03T09:03:30.222Z,1.42
2022-08-03T09:06:02.418Z,1.30
2022-08-03T09:08:30.861Z,1.23
2022-08-03T09:11:00.088Z,0.90
2022-08-03T09:13:27.666Z,1.17
2022-08-03T09:16:17.990Z,1.42
2022-08-03T09:18:47.234Z,1.10
2022-08-03T09:36:37.546Z,1.20
2022-08-03T09:39:10.906Z,1.27
2022-08-03T09:41:44.581Z,1.38
2022-08-03T09:44:16.229Z,1.30
2022-08-03T09:46:56.392Z,1.30
2022-08-03T09:49:25.482Z,1.20
2022-08-03T09:52:32.933Z,1.50
2022-08-03T09:54:43.569Z,1.73
2022-08-03T09:57:24.761Z,1.23
2022-08-03T10:00:02.954Z,0.90
2022-08-03T10:02:44.698Z,1.05
2022-08-03T10:05:17.533Z,1.10
2022-08-03T10:07:50.618Z,1.17
2022-08-03T10:10:30.496Z,1.13
2022-08-03T10:13:00.573Z,1.30
2022-08-03T10:16:21.662Z,1.05
2022-08-03T10:18:17.034Z,0.75
2022-08-03T10:20:50.148Z,1.00
2022-08-03T10:23:19.008Z,0.80
2022-08-03T10:25:49.621Z,1.20
2022-08-03T10:28:19.813Z,1.00
2022-08-03T10:30:53.624Z,1.10
2022-08-03T10:33:49.891Z,1.10
2022-08-03T10:36:14.538Z,1.10
2022-08-03T10:38:52.674Z,1.10
2022-08-03T10:41:22.370Z,1.00
2022-08-03T10:44:13.372Z,1.33
2022-08-03T10:46:45.235Z,0.70
2022-08-03T10:49:34.501Z,1.40
2022-08-03T10:52:12.932Z,1.13
2022-08-03T10:55:11.266Z,0.93
2022-08-03T10:57:46.432Z,1.15
2022-08-03T11:00:27.365Z,0.95
2022-08-03T11:03:07.220Z,1.00
2022-08-03T11:05:40.620Z,1.17
2022-08-03T11:08:24.746Z,0.98
2022-08-03T11:11:14.223Z,0.88
2022-08-03T11:14:00.769Z,0.85
2022-08-03T11:16:29.532Z,1.20
2022-08-03T11:19:07.808Z,0.98
2022-08-03T11:21:50.953Z,1.40
2022-08-03T11:24:36.945Z,1.20
2022-08-03T11:27:20.821Z,1.00
2022-08-03T11:29:55.146Z,0.85
2022-08-03T11:32:38.349Z,1.00
2022-08-03T11:35:17.065Z,0.85
2022-08-03T11:38:08.775Z,0.80
2022-08-03T11:40:39.169Z,0.80
2022-08-03T11:43:25.734Z,0.90
2022-08-03T11:46:06.506Z,0.80
2022-08-03T11:48:34.633Z,0.80
2022-08-03T11:51:06.976Z,0.90
2022-08-03T11:53:42.127Z,0.77
2022-08-03T11:56:12.780Z,1.00
2022-08-03T11:59:17.209Z,0.90
2022-08-03T12:01:42.498Z,0.93
2022-08-03T12:04:11.968Z,0.75
2022-08-03T12:06:55.357Z,0.82
2022-08-03T12:09:23.537Z,0.80
2022-08-03T12:12:00.654Z,1.40
2022-08-03T12:14:48.539Z,1.50
2022-08-03T12:17:18.700Z,0.75
2022-08-03T12:19:47.377Z,1.23
2022-08-03T12:22:16.935Z,0.98
2022-08-03T12:24:46.763Z,0.80
2022-08-03T12:27:25.513Z,0.88
2022-08-03T12:29:57.300Z,0.90
2022-08-03T12:32:28.304Z,0.90
2022-08-03T12:35:01.072Z,0.80
2022-08-03T12:37:29.575Z,0.95
2022-08-03T12:40:07.731Z,0.90
2022-08-03T12:42:39.719Z,0.80
2022-08-03T12:45:24.490Z,1.13
2022-08-03T12:47:55.871Z,0.70
2022-08-03T12:50:43.758Z,0.90
2022-08-03T12:53:11.546Z,0.88
2022-08-03T12:55:57.943Z,0.80
2022-08-03T12:58:40.072Z,1.00
2022-08-03T13:01:10.499Z,0.90
2022-08-03T13:03:50.274Z,0.90
2022-08-03T13:06:25.238Z,1.00
2022-08-03T13:09:06.662Z,0.85
2022-08-03T13:11:57.258Z,1.10
2022-08-03T13:14:23.725Z,0.75
2022-08-03T13:16:51.425Z,1.20
2022-08-03T13:19:19.108Z,1.10
2022-08-03T13:22:03.721Z,0.82
2022-08-03T13:24:33.133Z,0.98
2022-08-03T13:27:58.851Z,1.13
2022-08-03T13:29:49.084Z,1.00
2022-08-03T13:32:17.046Z,0.85
2022-08-03T13:34:44.572Z,0.85
2022-08-03T13:37:12.632Z,0.82
2022-08-03T13:39:57.762Z,0.95
2022-08-03T13:42:29.684Z,1.08
2022-08-03T13:44:57.770Z,0.80
2022-08-03T13:47:25.482Z,1.45
2022-08-03T13:49:54.258Z,0.80
2022-08-03T13:52:32.158Z,1.17
2022-08-03T13:55:00.396Z,1.00
2022-08-03T13:58:04.185Z,1.25
2022-08-03T14:00:27.025Z,1.00
2022-08-03T14:03:09.578Z,0.85
2022-08-03T14:05:42.962Z,0.88
2022-08-03T14:08:11.429Z,1.20
2022-08-03T14:10:43.181Z,1.30
2022-08-03T14:13:12.367Z,1.30
2022-08-03T14:15:40.526Z,1.08
2022-08-03T14:18:12.780Z,1.08
2022-08-03T14:20:49.102Z,0.90
2022-08-03T14:23:22.143Z,1.08
2022-08-03T14:25:51.583Z,1.05
2022-08-03T14:28:24.824Z,1.10
2022-08-03T14:30:54.791Z,1.00
2022-08-03T14:33:22.923Z,1.00
2022-08-03T14:35:52.040Z,0.98
2022-08-03T14:38:20.143Z,1.20
2022-08-03T14:40:48.633Z,1.00
2022-08-03T14:43:18.234Z,1.15
2022-08-03T14:45:46.295Z,1.20
2022-08-03T14:50:31.790Z,0.90
2022-08-03T14:51:04.461Z,1.30
2022-08-03T14:53:32.589Z,1.00
2022-08-03T14:56:00.576Z,0.90
2022-08-03T14:58:28.828Z,1.02
2022-08-03T15:00:56.857Z,1.15
2022-08-03T15:03:25.580Z,0.80
2022-08-03T15:05:55.461Z,1.00
2022-08-03T15:08:24.827Z,0.90
2022-08-03T15:10:54.517Z,1.13
2022-08-03T15:13:22.829Z,0.90
2022-08-03T15:15:51.923Z,1.10
2022-08-03T15:18:20.661Z,1.48
2022-08-03T15:20:50.510Z,1.10
2022-08-03T15:23:18.776Z,1.08
2022-08-03T15:26:31.864Z,1.00
2022-08-03T15:28:37.473Z,0.90
2022-08-03T15:31:06.784Z,1.00
2022-08-03T15:33:35.258Z,0.82
2022-08-03T15:36:04.246Z,1.05
2022-08-03T15:38:32.151Z,1.00
2022-08-03T15:41:00.417Z,1.10
2022-08-03T15:43:28.381Z,0.88
2022-08-03T15:46:27.665Z,1.10
2022-08-03T15:48:44.150Z,1.13
2022-08-03T15:51:12.448Z,0.98
2022-08-03T15:53:40.399Z,1.10
2022-08-03T15:56:14.240Z,1.20
2022-08-03T15:59:10.751Z,1.10
2022-08-03T16:01:31.774Z,1.02
2022-08-03T16:03:59.855Z,0.90
2022-08-03T16:06:29.585Z,1.15
2022-08-03T16:09:24.069Z,1.25
2022-08-03T16:11:55.651Z,1.10
2022-08-03T16:14:32.085Z,1.20
2022-08-03T16:17:01.281Z,1.20
2022-08-03T16:19:29.131Z,1.10
2022-08-03T16:21:57.092Z,1.10
2022-08-03T16:24:27.710Z,1.40
2022-08-03T16:26:56.850Z,1.08
2022-08-03T16:29:24.859Z,1.02
2022-08-03T16:31:53.006Z,1.20
2022-08-03T16:34:21.350Z,0.98
2022-08-03T16:36:49.343Z,0.88
2022-08-03T16:39:17.215Z,1.10
2022-08-03T16:41:53.621Z,0.95
2022-08-03T16:44:30.409Z,1.20
2022-08-03T16:46:59.766Z,0.93
2022-08-03T16:49:55.582Z,1.08
2022-08-03T16:52:18.236Z,1.63
2022-08-03T16:54:50.595Z,1.08
2022-08-03T16:57:55.787Z,1.10
2022-08-03T17:00:32.943Z,0.98
2022-08-03T17:03:19.074Z,1.15
2022-08-03T17:05:50.145Z,1.17
2022-08-03T17:08:19.020Z,1.13
2022-08-03T17:10:56.048Z,1.30
2022-08-03T17:13:38.963Z,0.93
2022-08-03T17:16:09.624Z,1.20
2022-08-03T17:18:49.830Z,1.20
2022-08-03T17:21:23.049Z,1.15
2022-08-03T17:24:19.708Z,1.25
2022-08-03T17:26:51.025Z,1.60
2022-08-03T17:29:23.212Z,1.10
2022-08-03T17:31:53.598Z,1.33
2022-08-03T17:34:26.537Z,1.42
2022-08-03T17:37:04.483Z,1.60
2022-08-03T17:39:56.122Z,1.10
2022-08-03T17:42:30.769Z,1.13
2022-08-03T17:45:02.065Z,1.52
2022-08-03T17:47:42.443Z,1.35
2022-08-03T17:50:25.276Z,1.30
2022-08-03T17:53:06.735Z,1.55
2022-08-03T17:55:55.334Z,1.05
2022-08-03T17:58:53.566Z,1.35
2022-08-03T18:02:06.122Z,1.23
2022-08-03T18:04:42.386Z,1.48
2022-08-03T18:07:15.998Z,1.40
2022-08-03T18:10:03.731Z,1.48
2022-08-03T18:12:54.704Z,1.13
2022-08-03T18:15:43.914Z,1.40
2022-08-03T18:18:14.225Z,1.52
2022-08-03T18:20:45.543Z,1.48
2022-08-03T18:23:25.318Z,1.60
2022-08-03T18:26:10.785Z,1.05
2022-08-03T18:28:40.765Z,1.48
2022-08-03T18:31:12.651Z,1.33
2022-08-03T18:34:17.624Z,1.40
2022-08-03T18:36:37.891Z,1.33
2022-08-03T18:39:06.845Z,1.40
2022-08-03T18:41:36.633Z,1.25
2022-08-03T18:44:07.081Z,1.17
2022-08-03T18:46:42.349Z,1.88
2022-08-03T18:49:11.390Z,1.25
2022-08-03T18:51:43.260Z,1.23
2022-08-03T19:00:10.421Z,1.48
2022-08-03T19:03:10.160Z,1.45
2022-08-03T19:06:02.638Z,1.38
2022-08-03T19:08:55.886Z,1.70
2022-08-03T19:12:11.269Z,1.42
2022-08-03T19:14:28.660Z,1.90
2022-08-03T19:17:05.867Z,1.70
2022-08-03T19:19:44.516Z,1.65
2022-08-03T19:22:15.824Z,1.70
2022-08-03T19:24:46.361Z,1.30
2022-08-03T19:27:15.972Z,1.55
2022-08-03T19:29:58.811Z,1.50
2022-08-03T19:32:30.416Z,1.40
2022-08-03T19:35:00.613Z,1.52
2022-08-03T19:37:38.217Z,2.35
2022-08-03T19:40:12.254Z,1.50
2022-08-03T19:42:46.364Z,1.83
2022-08-03T19:45:21.318Z,1.50
2022-08-03T19:47:53.023Z,1.20
2022-08-03T19:50:21.294Z,1.40
2022-08-03T19:52:50.076Z,1.63
2022-08-03T19:55:18.668Z,2.25
2022-08-03T19:57:49.355Z,1.90
2022-08-03T20:00:26.411Z,2.20
2022-08-03T20:02:54.977Z,1.95
2022-08-03T20:05:22.770Z,2.00
2022-08-03T20:07:51.047Z,1.90
2022-08-03T20:10:20.348Z,1.70
2022-08-03T20:12:49.769Z,1.88
2022-08-03T20:15:30.950Z,2.08
2022-08-03T20:18:00.307Z,1.50
2022-08-03T20:20:32.736Z,1.92
2022-08-03T20:23:07.225Z,1.90
2022-08-03T20:25:48.567Z,1.90
2022-08-03T20:31:36.149Z,1.90
2022-08-03T20:34:05.454Z,1.90
2022-08-03T20:36:33.232Z,1.85
2022-08-03T20:39:00.987Z,1.65
2022-08-03T20:41:30.586Z,1.88
2022-08-03T20:44:00.936Z,2.45
2022-08-03T20:46:37.227Z,2.03
2022-08-03T20:49:19.213Z,1.48
2022-08-03T20:51:53.106Z,1.70
2022-08-03T20:54:31.057Z,1.33
2022-08-03T20:57:04.345Z,1.80
2022-08-03T20:59:50.447Z,1.88
2022-08-03T21:02:30.054Z,1.80
2022-08-03T21:05:03.219Z,1.60
2022-08-03T21:08:06.125Z,1.70
2022-08-03T21:10:38.600Z,1.83
2022-08-03T21:13:10.024Z,1.30
2022-08-03T21:13:14.083Z,1.70
2022-08-03T21:13:39.306Z,1.55
2022-08-03T21:16:14.661Z,1.73
2022-08-03T21:18:45.860Z,1.70
2022-08-03T21:21:16.089Z,1.85
2022-08-03T21:23:48.847Z,1.73
2022-08-03T21:26:22.304Z,1.88
2022-08-03T21:28:52.363Z,2.00
2022-08-03T21:31:25.378Z,1.60
2022-08-03T21:34:12.157Z,1.73
2022-08-03T21:36:39.849Z,1.52
2022-08-03T21:39:09.668Z,1.60
2022-08-03T21:41:40.858Z,1.70
2022-08-03T21:44:08.527Z,1.70
2022-08-03T21:46:39.147Z,1.48
2022-08-03T21:50:05.215Z,1.80
2022-08-03T21:52:04.725Z,1.80
2022-08-03T21:54:36.295Z,1.65
2022-08-03T21:57:05.978Z,1.52
2022-08-03T21:59:38.077Z,2.00
2022-08-03T22:02:20.040Z,1.70
2022-08-03T22:04:56.131Z,1.88
2022-08-03T22:09:57.351Z,1.52
2022-08-03T22:12:27.335Z,1.90
2022-08-03T22:15:01.133Z,1.88
2022-08-03T22:17:55.297Z,2.03
2022-08-03T22:22:55.942Z,1.90
2022-08-03T22:25:29.174Z,1.50
2022-08-03T22:27:59.328Z,1.90
2022-08-03T22:30:27.719Z,1.85
2022-08-03T22:32:56.542Z,1.75
2022-08-03T22:35:25.813Z,1.60
2022-08-03T22:37:55.698Z,1.65
2022-08-03T22:40:23.211Z,1.63
2022-08-03T22:42:52.187Z,1.80
2022-08-03T22:46:07.428Z,2.13
2022-08-03T22:48:08.942Z,1.70
2022-08-03T22:50:37.261Z,1.70
2022-08-03T22:53:07.038Z,1.80
2022-08-03T22:55:34.689Z,1.90
2022-08-03T22:58:02.251Z,1.90
2022-08-03T23:00:29.900Z,2.10
2022-08-03T23:03:02.384Z,1.88
2022-08-03T23:06:00.956Z,1.80
2022-08-03T23:08:24.897Z,2.20
2022-08-03T23:10:56.163Z,2.65
2022-08-03T23:13:26.997Z,2.50
2022-08-03T23:15:59.778Z,2.70
2022-08-03T23:18:34.123Z,2.60
2022-08-03T23:21:11.023Z,2.28
2022-08-03T23:23:44.322Z,1.90
2022-08-03T23:26:16.037Z,2.10
2022-08-03T23:28:46.760Z,2.20
2022-08-03T23:31:15.591Z,2.10
2022-08-03T23:33:45.185Z,2.97
2022-08-03T23:36:30.282Z,2.75
2022-08-03T23:39:02.459Z,3.17
2022-08-03T23:41:33.037Z,3.13
2022-08-03T23:44:03.870Z,2.97
2022-08-03T23:46:33.191Z,3.05
2022-08-03T23:49:00.738Z,2.70
2022-08-03T23:51:28.166Z,2.60
2022-08-03T23:54:03.534Z,2.63
2022-08-03T23:56:57.299Z,2.60
2022-08-03T23:59:42.599Z,2.28
